sensor_id;sensor_type;location;lat;lon;timestamp;P1;durP1;ratioP1;P2;durP2;ratioP2
9960;SDS011;5021;51.506;11.320;2024-01-07T00:01:28;44.07;;;25.13;;
9960;SDS011;5021;51.506;11.320;2024-01-07T00:03:54;38.80;;;22.20;;
9960;SDS011;5021;51.506;11.320;2024-01-07T00:06:20;39.93;;;22.97;;
9960;SDS011;5021;51.506;11.320;2024-01-07T00:08:46;38.73;;;22.30;;
9960;SDS011;5021;51.506;11.320;2024-01-07T00:11:12;35.03;;;21.33;;
9960;SDS011;5021;51.506;11.320;2024-01-07T00:13:38;30.83;;;19.23;;
9960;SDS011;5021;51.506;11.320;2024-01-07T00:16:04;27.90;;;17.93;;
9960;SDS011;5021;51.506;11.320;2024-01-07T00:18:30;25.53;;;17.10;;
9960;SDS011;5021;51.506;11.320;2024-01-07T00:20:56;23.20;;;15.73;;
9960;SDS011;5021;51.506;11.320;2024-01-07T00:23:22;22.47;;;14.80;;
9960;SDS011;5021;51.506;11.320;2024-01-07T00:25:48;20.70;;;15.00;;
9960;SDS011;5021;51.506;11.320;2024-01-07T00:28:14;18.30;;;13.27;;
9960;SDS011;5021;51.506;11.320;2024-01-07T00:30:40;19.37;;;12.37;;
9960;SDS011;5021;51.506;11.320;2024-01-07T00:33:06;19.70;;;13.60;;
9960;SDS011;5021;51.506;11.320;2024-01-07T00:35:31;17.23;;;11.60;;
9960;SDS011;5021;51.506;11.320;2024-01-07T00:37:57;15.63;;;11.90;;
9960;SDS011;5021;51.506;11.320;2024-01-07T00:40:23;15.67;;;12.00;;
9960;SDS011;5021;51.506;11.320;2024-01-07T00:42:49;17.97;;;11.90;;
9960;SDS011;5021;51.506;11.320;2024-01-07T00:45:16;17.83;;;11.93;;
9960;SDS011;5021;51.506;11.320;2024-01-07T00:47:42;18.37;;;12.23;;
9960;SDS011;5021;51.506;11.320;2024-01-07T00:50:08;13.70;;;11.37;;
9960;SDS011;5021;51.506;11.320;2024-01-07T00:52:34;13.97;;;10.83;;
9960;SDS011;5021;51.506;11.320;2024-01-07T00:55:02;15.00;;;12.03;;
9960;SDS011;5021;51.506;11.320;2024-01-07T00:57:28;16.43;;;11.40;;
9960;SDS011;5021;51.506;11.320;2024-01-07T00:59:54;15.07;;;11.80;;
9960;SDS011;5021;51.506;11.320;2024-01-07T01:02:20;15.60;;;10.83;;
9960;SDS011;5021;51.506;11.320;2024-01-07T01:04:46;17.23;;;11.90;;
9960;SDS011;5021;51.506;11.320;2024-01-07T01:07:12;14.30;;;11.17;;
9960;SDS011;5021;51.506;11.320;2024-01-07T01:09:38;14.77;;;11.07;;
9960;SDS011;5021;51.506;11.320;2024-01-07T01:12:04;15.17;;;11.50;;
9960;SDS011;5021;51.506;11.320;2024-01-07T01:14:30;16.60;;;12.13;;
9960;SDS011;5021;51.506;11.320;2024-01-07T01:16:56;16.97;;;12.43;;
9960;SDS011;5021;51.506;11.320;2024-01-07T01:19:23;16.30;;;11.80;;
9960;SDS011;5021;51.506;11.320;2024-01-07T01:21:49;15.13;;;11.10;;
9960;SDS011;5021;51.506;11.320;2024-01-07T01:24:15;17.17;;;12.20;;
9960;SDS011;5021;51.506;11.320;2024-01-07T01:26:41;13.23;;;10.33;;
9960;SDS011;5021;51.506;11.320;2024-01-07T01:29:07;14.70;;;9.70;;
9960;SDS011;5021;51.506;11.320;2024-01-07T01:31:33;16.53;;;12.47;;
9960;SDS011;5021;51.506;11.320;2024-01-07T01:33:59;16.80;;;12.00;;
9960;SDS011;5021;51.506;11.320;2024-01-07T01:36:25;15.17;;;11.40;;
9960;SDS011;5021;51.506;11.320;2024-01-07T01:38:51;20.37;;;13.30;;
9960;SDS011;5021;51.506;11.320;2024-01-07T01:41:17;17.57;;;13.13;;
9960;SDS011;5021;51.506;11.320;2024-01-07T01:43:43;20.30;;;13.53;;
9960;SDS011;5021;51.506;11.320;2024-01-07T01:46:09;19.57;;;13.43;;
9960;SDS011;5021;51.506;11.320;2024-01-07T01:48:35;17.40;;;12.67;;
9960;SDS011;5021;51.506;11.320;2024-01-07T01:51:02;17.97;;;13.10;;
9960;SDS011;5021;51.506;11.320;2024-01-07T01:53:28;20.03;;;14.47;;
9960;SDS011;5021;51.506;11.320;2024-01-07T01:55:57;17.07;;;13.63;;
9960;SDS011;5021;51.506;11.320;2024-01-07T01:58:25;21.67;;;14.53;;
9960;SDS011;5021;51.506;11.320;2024-01-07T02:00:52;19.83;;;14.50;;
9960;SDS011;5021;51.506;11.320;2024-01-07T02:03:18;19.67;;;14.17;;
9960;SDS011;5021;51.506;11.320;2024-01-07T02:05:44;20.13;;;14.63;;
9960;SDS011;5021;51.506;11.320;2024-01-07T02:08:10;19.03;;;13.77;;
9960;SDS011;5021;51.506;11.320;2024-01-07T02:10:37;18.33;;;13.07;;
9960;SDS011;5021;51.506;11.320;2024-01-07T02:13:03;19.03;;;13.90;;
9960;SDS011;5021;51.506;11.320;2024-01-07T02:15:29;18.63;;;13.67;;
9960;SDS011;5021;51.506;11.320;2024-01-07T02:17:55;19.27;;;13.50;;
9960;SDS011;5021;51.506;11.320;2024-01-07T02:20:21;19.60;;;14.67;;
9960;SDS011;5021;51.506;11.320;2024-01-07T02:22:47;17.33;;;13.37;;
9960;SDS011;5021;51.506;11.320;2024-01-07T02:25:13;18.97;;;14.43;;
9960;SDS011;5021;51.506;11.320;2024-01-07T02:27:39;18.83;;;13.00;;
9960;SDS011;5021;51.506;11.320;2024-01-07T02:30:05;18.70;;;14.40;;
9960;SDS011;5021;51.506;11.320;2024-01-07T02:32:31;18.00;;;13.63;;
9960;SDS011;5021;51.506;11.320;2024-01-07T02:34:59;17.87;;;13.70;;
9960;SDS011;5021;51.506;11.320;2024-01-07T02:37:25;17.33;;;13.40;;
9960;SDS011;5021;51.506;11.320;2024-01-07T02:39:51;20.30;;;13.13;;
9960;SDS011;5021;51.506;11.320;2024-01-07T02:42:17;18.30;;;12.83;;
9960;SDS011;5021;51.506;11.320;2024-01-07T02:44:43;21.73;;;14.40;;
9960;SDS011;5021;51.506;11.320;2024-01-07T02:47:09;16.37;;;12.47;;
9960;SDS011;5021;51.506;11.320;2024-01-07T02:49:35;21.10;;;14.30;;
9960;SDS011;5021;51.506;11.320;2024-01-07T02:52:01;18.17;;;12.77;;
9960;SDS011;5021;51.506;11.320;2024-01-07T02:54:26;18.73;;;13.10;;
9960;SDS011;5021;51.506;11.320;2024-01-07T02:56:52;18.83;;;13.23;;
9960;SDS011;5021;51.506;11.320;2024-01-07T02:59:19;17.77;;;12.83;;
9960;SDS011;5021;51.506;11.320;2024-01-07T03:01:45;16.23;;;11.80;;
9960;SDS011;5021;51.506;11.320;2024-01-07T03:04:12;22.30;;;13.63;;
9960;SDS011;5021;51.506;11.320;2024-01-07T03:06:38;20.47;;;13.20;;
9960;SDS011;5021;51.506;11.320;2024-01-07T03:09:04;21.23;;;13.60;;
9960;SDS011;5021;51.506;11.320;2024-01-07T03:11:30;18.03;;;12.50;;
9960;SDS011;5021;51.506;11.320;2024-01-07T03:13:56;18.40;;;12.17;;
9960;SDS011;5021;51.506;11.320;2024-01-07T03:16:23;17.37;;;11.63;;
9960;SDS011;5021;51.506;11.320;2024-01-07T03:18:49;15.13;;;11.23;;
9960;SDS011;5021;51.506;11.320;2024-01-07T03:21:18;14.03;;;10.50;;
9960;SDS011;5021;51.506;11.320;2024-01-07T03:23:45;16.10;;;9.93;;
9960;SDS011;5021;51.506;11.320;2024-01-07T03:26:11;15.57;;;11.00;;
9960;SDS011;5021;51.506;11.320;2024-01-07T03:28:37;14.43;;;10.93;;
9960;SDS011;5021;51.506;11.320;2024-01-07T03:31:08;15.03;;;11.33;;
9960;SDS011;5021;51.506;11.320;2024-01-07T03:33:34;18.23;;;11.40;;
9960;SDS011;5021;51.506;11.320;2024-01-07T03:36:00;18.70;;;11.23;;
9960;SDS011;5021;51.506;11.320;2024-01-07T03:38:25;14.47;;;10.83;;
9960;SDS011;5021;51.506;11.320;2024-01-07T03:40:51;15.13;;;10.90;;
9960;SDS011;5021;51.506;11.320;2024-01-07T03:43:17;14.70;;;10.77;;
9960;SDS011;5021;51.506;11.320;2024-01-07T03:45:43;13.97;;;10.03;;
9960;SDS011;5021;51.506;11.320;2024-01-07T03:48:09;13.60;;;9.70;;
9960;SDS011;5021;51.506;11.320;2024-01-07T03:50:35;13.43;;;9.60;;
9960;SDS011;5021;51.506;11.320;2024-01-07T03:53:01;13.33;;;9.83;;
9960;SDS011;5021;51.506;11.320;2024-01-07T03:55:27;13.33;;;10.00;;
9960;SDS011;5021;51.506;11.320;2024-01-07T03:57:53;12.97;;;9.90;;
9960;SDS011;5021;51.506;11.320;2024-01-07T04:00:19;11.80;;;9.07;;
9960;SDS011;5021;51.506;11.320;2024-01-07T04:02:45;13.33;;;8.63;;
9960;SDS011;5021;51.506;11.320;2024-01-07T04:05:11;11.20;;;8.50;;
9960;SDS011;5021;51.506;11.320;2024-01-07T04:07:37;11.53;;;8.50;;
9960;SDS011;5021;51.506;11.320;2024-01-07T04:10:03;12.87;;;8.70;;
9960;SDS011;5021;51.506;11.320;2024-01-07T04:12:29;13.60;;;8.87;;
9960;SDS011;5021;51.506;11.320;2024-01-07T04:14:55;12.13;;;8.80;;
9960;SDS011;5021;51.506;11.320;2024-01-07T04:17:21;12.10;;;9.03;;
9960;SDS011;5021;51.506;11.320;2024-01-07T04:19:47;13.57;;;9.43;;
9960;SDS011;5021;51.506;11.320;2024-01-07T04:22:13;13.67;;;9.23;;
9960;SDS011;5021;51.506;11.320;2024-01-07T04:24:40;12.53;;;9.07;;
9960;SDS011;5021;51.506;11.320;2024-01-07T04:27:06;8.60;;;7.50;;
9960;SDS011;5021;51.506;11.320;2024-01-07T04:29:32;11.53;;;7.80;;
9960;SDS011;5021;51.506;11.320;2024-01-07T04:31:58;12.03;;;8.77;;
9960;SDS011;5021;51.506;11.320;2024-01-07T04:34:24;11.67;;;8.43;;
9960;SDS011;5021;51.506;11.320;2024-01-07T04:36:50;11.17;;;7.83;;
9960;SDS011;5021;51.506;11.320;2024-01-07T04:39:16;10.43;;;8.73;;
9960;SDS011;5021;51.506;11.320;2024-01-07T04:41:42;11.00;;;8.27;;
9960;SDS011;5021;51.506;11.320;2024-01-07T04:44:08;11.23;;;7.70;;
9960;SDS011;5021;51.506;11.320;2024-01-07T04:46:34;12.37;;;8.83;;
9960;SDS011;5021;51.506;11.320;2024-01-07T04:49:00;10.77;;;8.40;;
9960;SDS011;5021;51.506;11.320;2024-01-07T04:51:26;10.27;;;7.90;;
9960;SDS011;5021;51.506;11.320;2024-01-07T04:53:52;9.70;;;7.67;;
9960;SDS011;5021;51.506;11.320;2024-01-07T04:56:18;12.90;;;8.83;;
9960;SDS011;5021;51.506;11.320;2024-01-07T04:58:44;9.93;;;8.00;;
9960;SDS011;5021;51.506;11.320;2024-01-07T05:01:10;9.50;;;7.40;;
9960;SDS011;5021;51.506;11.320;2024-01-07T05:03:36;14.67;;;9.93;;
9960;SDS011;5021;51.506;11.320;2024-01-07T05:06:03;15.27;;;9.67;;
9960;SDS011;5021;51.506;11.320;2024-01-07T05:08:29;17.13;;;12.03;;
9960;SDS011;5021;51.506;11.320;2024-01-07T05:10:55;14.70;;;9.83;;
9960;SDS011;5021;51.506;11.320;2024-01-07T05:13:21;11.20;;;7.93;;
9960;SDS011;5021;51.506;11.320;2024-01-07T05:15:46;11.70;;;8.40;;
9960;SDS011;5021;51.506;11.320;2024-01-07T05:18:18;10.63;;;8.17;;
9960;SDS011;5021;51.506;11.320;2024-01-07T05:20:44;12.80;;;8.03;;
9960;SDS011;5021;51.506;11.320;2024-01-07T05:23:10;10.37;;;7.13;;
9960;SDS011;5021;51.506;11.320;2024-01-07T05:25:36;10.43;;;8.27;;
9960;SDS011;5021;51.506;11.320;2024-01-07T05:28:02;9.07;;;7.63;;
9960;SDS011;5021;51.506;11.320;2024-01-07T05:30:28;12.00;;;7.83;;
9960;SDS011;5021;51.506;11.320;2024-01-07T05:32:54;10.27;;;8.37;;
9960;SDS011;5021;51.506;11.320;2024-01-07T05:35:20;11.17;;;7.77;;
9960;SDS011;5021;51.506;11.320;2024-01-07T05:37:46;9.90;;;7.73;;
9960;SDS011;5021;51.506;11.320;2024-01-07T05:40:12;9.40;;;7.40;;
9960;SDS011;5021;51.506;11.320;2024-01-07T05:42:38;11.07;;;8.07;;
9960;SDS011;5021;51.506;11.320;2024-01-07T05:45:04;11.50;;;7.50;;
9960;SDS011;5021;51.506;11.320;2024-01-07T05:47:30;12.10;;;7.93;;
9960;SDS011;5021;51.506;11.320;2024-01-07T05:49:56;9.40;;;7.03;;
9960;SDS011;5021;51.506;11.320;2024-01-07T05:52:22;10.60;;;7.03;;
9960;SDS011;5021;51.506;11.320;2024-01-07T05:54:49;10.50;;;7.70;;
9960;SDS011;5021;51.506;11.320;2024-01-07T05:57:14;10.17;;;7.47;;
9960;SDS011;5021;51.506;11.320;2024-01-07T05:59:40;11.73;;;7.10;;
9960;SDS011;5021;51.506;11.320;2024-01-07T06:02:06;11.07;;;7.63;;
9960;SDS011;5021;51.506;11.320;2024-01-07T06:04:32;10.23;;;7.33;;
9960;SDS011;5021;51.506;11.320;2024-01-07T06:06:58;10.70;;;6.93;;
9960;SDS011;5021;51.506;11.320;2024-01-07T06:09:24;8.90;;;6.07;;
9960;SDS011;5021;51.506;11.320;2024-01-07T06:11:50;8.23;;;6.20;;
9960;SDS011;5021;51.506;11.320;2024-01-07T06:14:16;7.90;;;5.93;;
9960;SDS011;5021;51.506;11.320;2024-01-07T06:16:42;9.03;;;6.20;;
9960;SDS011;5021;51.506;11.320;2024-01-07T06:19:08;8.33;;;5.20;;
9960;SDS011;5021;51.506;11.320;2024-01-07T06:21:34;7.03;;;5.70;;
9960;SDS011;5021;51.506;11.320;2024-01-07T06:23:59;8.43;;;5.97;;
9960;SDS011;5021;51.506;11.320;2024-01-07T06:26:25;7.27;;;5.63;;
9960;SDS011;5021;51.506;11.320;2024-01-07T06:28:52;7.47;;;4.90;;
9960;SDS011;5021;51.506;11.320;2024-01-07T06:31:17;6.57;;;5.03;;
9960;SDS011;5021;51.506;11.320;2024-01-07T06:33:43;5.60;;;4.70;;
9960;SDS011;5021;51.506;11.320;2024-01-07T06:36:09;6.40;;;4.93;;
9960;SDS011;5021;51.506;11.320;2024-01-07T06:38:35;7.17;;;5.17;;
9960;SDS011;5021;51.506;11.320;2024-01-07T06:41:01;7.03;;;4.93;;
9960;SDS011;5021;51.506;11.320;2024-01-07T06:43:29;5.17;;;4.43;;
9960;SDS011;5021;51.506;11.320;2024-01-07T06:45:55;6.60;;;4.63;;
9960;SDS011;5021;51.506;11.320;2024-01-07T06:48:21;7.37;;;4.67;;
9960;SDS011;5021;51.506;11.320;2024-01-07T06:50:47;7.17;;;4.60;;
9960;SDS011;5021;51.506;11.320;2024-01-07T06:53:13;6.07;;;5.00;;
9960;SDS011;5021;51.506;11.320;2024-01-07T06:55:39;6.00;;;4.50;;
9960;SDS011;5021;51.506;11.320;2024-01-07T06:58:05;6.07;;;4.80;;
9960;SDS011;5021;51.506;11.320;2024-01-07T07:00:31;5.87;;;4.43;;
9960;SDS011;5021;51.506;11.320;2024-01-07T07:02:57;5.70;;;4.73;;
9960;SDS011;5021;51.506;11.320;2024-01-07T07:05:22;4.80;;;4.30;;
9960;SDS011;5021;51.506;11.320;2024-01-07T07:07:48;5.97;;;4.23;;
9960;SDS011;5021;51.506;11.320;2024-01-07T07:10:14;7.30;;;5.23;;
9960;SDS011;5021;51.506;11.320;2024-01-07T07:12:40;5.53;;;4.53;;
9960;SDS011;5021;51.506;11.320;2024-01-07T07:15:06;6.00;;;4.87;;
9960;SDS011;5021;51.506;11.320;2024-01-07T07:17:36;12.60;;;5.43;;
9960;SDS011;5021;51.506;11.320;2024-01-07T07:20:02;5.70;;;4.10;;
9960;SDS011;5021;51.506;11.320;2024-01-07T07:22:28;4.80;;;4.10;;
9960;SDS011;5021;51.506;11.320;2024-01-07T07:24:54;5.10;;;4.47;;
9960;SDS011;5021;51.506;11.320;2024-01-07T07:27:21;4.80;;;3.90;;
9960;SDS011;5021;51.506;11.320;2024-01-07T07:29:47;5.60;;;4.63;;
9960;SDS011;5021;51.506;11.320;2024-01-07T07:32:13;5.17;;;4.63;;
9960;SDS011;5021;51.506;11.320;2024-01-07T07:34:39;11.63;;;6.40;;
9960;SDS011;5021;51.506;11.320;2024-01-07T07:37:04;11.43;;;6.90;;
9960;SDS011;5021;51.506;11.320;2024-01-07T07:39:30;9.30;;;5.80;;
9960;SDS011;5021;51.506;11.320;2024-01-07T07:41:56;15.43;;;9.53;;
9960;SDS011;5021;51.506;11.320;2024-01-07T07:44:22;12.20;;;7.70;;
9960;SDS011;5021;51.506;11.320;2024-01-07T07:46:48;6.30;;;4.90;;
9960;SDS011;5021;51.506;11.320;2024-01-07T07:49:15;4.37;;;3.97;;
9960;SDS011;5021;51.506;11.320;2024-01-07T07:51:41;6.63;;;4.50;;
9960;SDS011;5021;51.506;11.320;2024-01-07T07:54:07;5.60;;;3.93;;
9960;SDS011;5021;51.506;11.320;2024-01-07T07:56:33;5.97;;;4.47;;
9960;SDS011;5021;51.506;11.320;2024-01-07T07:59:00;4.77;;;3.97;;
9960;SDS011;5021;51.506;11.320;2024-01-07T08:01:26;5.60;;;3.60;;
9960;SDS011;5021;51.506;11.320;2024-01-07T08:03:52;4.17;;;3.77;;
9960;SDS011;5021;51.506;11.320;2024-01-07T08:06:18;6.43;;;4.27;;
9960;SDS011;5021;51.506;11.320;2024-01-07T08:08:44;5.03;;;4.33;;
9960;SDS011;5021;51.506;11.320;2024-01-07T08:11:10;4.33;;;3.67;;
9960;SDS011;5021;51.506;11.320;2024-01-07T08:13:37;7.13;;;4.57;;
9960;SDS011;5021;51.506;11.320;2024-01-07T08:16:03;4.00;;;3.60;;
9960;SDS011;5021;51.506;11.320;2024-01-07T08:18:30;7.30;;;4.40;;
9960;SDS011;5021;51.506;11.320;2024-01-07T08:20:56;7.37;;;5.10;;
9960;SDS011;5021;51.506;11.320;2024-01-07T08:23:22;5.03;;;3.97;;
9960;SDS011;5021;51.506;11.320;2024-01-07T08:25:48;6.17;;;4.53;;
9960;SDS011;5021;51.506;11.320;2024-01-07T08:28:16;4.43;;;3.40;;
9960;SDS011;5021;51.506;11.320;2024-01-07T08:30:42;9.43;;;5.80;;
9960;SDS011;5021;51.506;11.320;2024-01-07T08:33:07;4.80;;;3.90;;
9960;SDS011;5021;51.506;11.320;2024-01-07T08:35:33;5.53;;;4.27;;
9960;SDS011;5021;51.506;11.320;2024-01-07T08:37:59;4.70;;;3.60;;
9960;SDS011;5021;51.506;11.320;2024-01-07T08:40:25;6.23;;;4.73;;
9960;SDS011;5021;51.506;11.320;2024-01-07T08:42:51;8.47;;;5.03;;
9960;SDS011;5021;51.506;11.320;2024-01-07T08:45:17;4.80;;;4.07;;
9960;SDS011;5021;51.506;11.320;2024-01-07T08:47:43;3.83;;;3.43;;
9960;SDS011;5021;51.506;11.320;2024-01-07T08:50:09;4.87;;;4.00;;
9960;SDS011;5021;51.506;11.320;2024-01-07T08:52:35;7.67;;;4.80;;
9960;SDS011;5021;51.506;11.320;2024-01-07T08:55:02;5.93;;;4.40;;
9960;SDS011;5021;51.506;11.320;2024-01-07T08:57:30;4.80;;;4.00;;
9960;SDS011;5021;51.506;11.320;2024-01-07T08:59:56;7.47;;;4.10;;
9960;SDS011;5021;51.506;11.320;2024-01-07T09:02:22;4.13;;;3.30;;
9960;SDS011;5021;51.506;11.320;2024-01-07T09:04:48;4.20;;;3.80;;
9960;SDS011;5021;51.506;11.320;2024-01-07T09:07:14;5.57;;;3.93;;
9960;SDS011;5021;51.506;11.320;2024-01-07T09:09:41;4.13;;;3.17;;
9960;SDS011;5021;51.506;11.320;2024-01-07T09:12:07;3.73;;;3.33;;
9960;SDS011;5021;51.506;11.320;2024-01-07T09:14:33;4.37;;;3.97;;
9960;SDS011;5021;51.506;11.320;2024-01-07T09:16:59;4.53;;;3.73;;
9960;SDS011;5021;51.506;11.320;2024-01-07T09:19:25;4.13;;;3.13;;
9960;SDS011;5021;51.506;11.320;2024-01-07T09:21:51;3.97;;;3.57;;
9960;SDS011;5021;51.506;11.320;2024-01-07T09:24:17;4.27;;;3.83;;
9960;SDS011;5021;51.506;11.320;2024-01-07T09:26:43;4.07;;;3.67;;
9960;SDS011;5021;51.506;11.320;2024-01-07T09:29:09;3.80;;;3.40;;
9960;SDS011;5021;51.506;11.320;2024-01-07T09:31:35;4.30;;;3.80;;
9960;SDS011;5021;51.506;11.320;2024-01-07T09:34:01;4.37;;;3.50;;
9960;SDS011;5021;51.506;11.320;2024-01-07T09:36:28;3.93;;;3.43;;
9960;SDS011;5021;51.506;11.320;2024-01-07T09:38:54;4.73;;;3.80;;
9960;SDS011;5021;51.506;11.320;2024-01-07T09:41:20;5.03;;;3.40;;
9960;SDS011;5021;51.506;11.320;2024-01-07T09:43:46;4.63;;;3.50;;
9960;SDS011;5021;51.506;11.320;2024-01-07T09:46:13;3.87;;;3.40;;
9960;SDS011;5021;51.506;11.320;2024-01-07T09:48:39;3.13;;;2.63;;
9960;SDS011;5021;51.506;11.320;2024-01-07T09:51:05;3.70;;;3.40;;
9960;SDS011;5021;51.506;11.320;2024-01-07T09:53:34;3.60;;;2.73;;
9960;SDS011;5021;51.506;11.320;2024-01-07T09:56:02;4.40;;;3.13;;
9960;SDS011;5021;51.506;11.320;2024-01-07T09:58:29;5.50;;;4.43;;
9960;SDS011;5021;51.506;11.320;2024-01-07T10:00:55;12.10;;;5.07;;
9960;SDS011;5021;51.506;11.320;2024-01-07T10:03:21;9.00;;;6.30;;
9960;SDS011;5021;51.506;11.320;2024-01-07T10:05:47;11.63;;;6.70;;
9960;SDS011;5021;51.506;11.320;2024-01-07T10:08:13;10.27;;;6.60;;
9960;SDS011;5021;51.506;11.320;2024-01-07T10:10:39;7.70;;;4.87;;
9960;SDS011;5021;51.506;11.320;2024-01-07T10:13:05;6.23;;;4.47;;
9960;SDS011;5021;51.506;11.320;2024-01-07T10:15:33;5.60;;;3.90;;
9960;SDS011;5021;51.506;11.320;2024-01-07T10:18:03;4.70;;;3.63;;
9960;SDS011;5021;51.506;11.320;2024-01-07T10:20:31;5.20;;;3.60;;
9960;SDS011;5021;51.506;11.320;2024-01-07T10:22:58;4.10;;;3.13;;
9960;SDS011;5021;51.506;11.320;2024-01-07T10:25:23;3.60;;;3.20;;
9960;SDS011;5021;51.506;11.320;2024-01-07T10:27:49;3.83;;;3.00;;
9960;SDS011;5021;51.506;11.320;2024-01-07T10:30:16;3.57;;;3.00;;
9960;SDS011;5021;51.506;11.320;2024-01-07T10:32:42;3.50;;;3.20;;
9960;SDS011;5021;51.506;11.320;2024-01-07T10:35:09;4.93;;;3.70;;
9960;SDS011;5021;51.506;11.320;2024-01-07T10:37:37;5.10;;;3.03;;
9960;SDS011;5021;51.506;11.320;2024-01-07T10:40:04;5.57;;;3.90;;
9960;SDS011;5021;51.506;11.320;2024-01-07T10:42:31;3.37;;;3.07;;
9960;SDS011;5021;51.506;11.320;2024-01-07T10:44:57;3.83;;;3.43;;
9960;SDS011;5021;51.506;11.320;2024-01-07T10:47:23;4.87;;;3.33;;
9960;SDS011;5021;51.506;11.320;2024-01-07T10:49:51;3.63;;;3.07;;
9960;SDS011;5021;51.506;11.320;2024-01-07T10:52:17;3.40;;;3.10;;
9960;SDS011;5021;51.506;11.320;2024-01-07T10:54:44;3.83;;;3.50;;
9960;SDS011;5021;51.506;11.320;2024-01-07T10:57:16;3.40;;;3.10;;
9960;SDS011;5021;51.506;11.320;2024-01-07T10:59:45;3.43;;;2.93;;
9960;SDS011;5021;51.506;11.320;2024-01-07T11:02:12;4.87;;;3.93;;
9960;SDS011;5021;51.506;11.320;2024-01-07T11:07:18;5.50;;;4.50;;
9960;SDS011;5021;51.506;11.320;2024-01-07T11:09:56;4.43;;;4.03;;
9960;SDS011;5021;51.506;11.320;2024-01-07T11:12:29;5.13;;;4.10;;
9960;SDS011;5021;51.506;11.320;2024-01-07T11:14:56;8.87;;;5.87;;
9960;SDS011;5021;51.506;11.320;2024-01-07T11:20:01;4.07;;;3.30;;
9960;SDS011;5021;51.506;11.320;2024-01-07T11:22:27;9.20;;;6.87;;
9960;SDS011;5021;51.506;11.320;2024-01-07T11:24:57;6.60;;;4.97;;
9960;SDS011;5021;51.506;11.320;2024-01-07T11:27:24;6.73;;;4.60;;
9960;SDS011;5021;51.506;11.320;2024-01-07T11:29:53;11.83;;;7.67;;
9960;SDS011;5021;51.506;11.320;2024-01-07T11:32:21;5.03;;;3.40;;
9960;SDS011;5021;51.506;11.320;2024-01-07T11:34:47;8.27;;;5.00;;
9960;SDS011;5021;51.506;11.320;2024-01-07T11:37:17;13.37;;;7.20;;
9960;SDS011;5021;51.506;11.320;2024-01-07T11:39:43;6.00;;;3.80;;
9960;SDS011;5021;51.506;11.320;2024-01-07T11:42:09;4.60;;;3.67;;
9960;SDS011;5021;51.506;11.320;2024-01-07T11:44:37;4.43;;;3.47;;
9960;SDS011;5021;51.506;11.320;2024-01-07T11:47:03;3.43;;;3.13;;
9960;SDS011;5021;51.506;11.320;2024-01-07T11:49:30;4.30;;;3.43;;
9960;SDS011;5021;51.506;11.320;2024-01-07T11:51:56;4.57;;;3.67;;
9960;SDS011;5021;51.506;11.320;2024-01-07T11:54:22;3.57;;;3.27;;
9960;SDS011;5021;51.506;11.320;2024-01-07T11:56:48;4.07;;;3.33;;
9960;SDS011;5021;51.506;11.320;2024-01-07T11:59:14;4.00;;;3.10;;
9960;SDS011;5021;51.506;11.320;2024-01-07T12:01:40;5.80;;;4.40;;
9960;SDS011;5021;51.506;11.320;2024-01-07T12:04:06;6.37;;;4.00;;
9960;SDS011;5021;51.506;11.320;2024-01-07T12:06:34;3.27;;;2.97;;
9960;SDS011;5021;51.506;11.320;2024-01-07T12:09:00;4.27;;;3.30;;
9960;SDS011;5021;51.506;11.320;2024-01-07T12:11:26;3.37;;;3.03;;
9960;SDS011;5021;51.506;11.320;2024-01-07T12:13:52;3.07;;;2.70;;
9960;SDS011;5021;51.506;11.320;2024-01-07T12:16:18;4.10;;;3.10;;
9960;SDS011;5021;51.506;11.320;2024-01-07T12:18:45;3.87;;;3.20;;
9960;SDS011;5021;51.506;11.320;2024-01-07T12:21:12;3.70;;;3.00;;
9960;SDS011;5021;51.506;11.320;2024-01-07T12:23:47;4.13;;;3.37;;
9960;SDS011;5021;51.506;11.320;2024-01-07T12:26:14;3.70;;;3.33;;
9960;SDS011;5021;51.506;11.320;2024-01-07T12:28:40;5.17;;;4.43;;
9960;SDS011;5021;51.506;11.320;2024-01-07T12:31:06;13.13;;;8.23;;
9960;SDS011;5021;51.506;11.320;2024-01-07T12:33:33;9.47;;;6.20;;
9960;SDS011;5021;51.506;11.320;2024-01-07T12:35:59;5.63;;;4.33;;
9960;SDS011;5021;51.506;11.320;2024-01-07T12:38:26;4.07;;;3.40;;
9960;SDS011;5021;51.506;11.320;2024-01-07T12:40:52;3.20;;;2.90;;
9960;SDS011;5021;51.506;11.320;2024-01-07T12:43:18;3.13;;;2.83;;
9960;SDS011;5021;51.506;11.320;2024-01-07T12:45:44;5.20;;;3.93;;
9960;SDS011;5021;51.506;11.320;2024-01-07T12:48:11;4.93;;;4.40;;
9960;SDS011;5021;51.506;11.320;2024-01-07T12:50:37;4.40;;;3.70;;
9960;SDS011;5021;51.506;11.320;2024-01-07T12:53:03;5.67;;;3.70;;
9960;SDS011;5021;51.506;11.320;2024-01-07T12:55:30;5.47;;;3.97;;
9960;SDS011;5021;51.506;11.320;2024-01-07T12:57:56;4.03;;;3.63;;
9960;SDS011;5021;51.506;11.320;2024-01-07T13:00:23;6.03;;;3.87;;
9960;SDS011;5021;51.506;11.320;2024-01-07T13:02:49;5.50;;;4.63;;
9960;SDS011;5021;51.506;11.320;2024-01-07T13:05:16;5.97;;;4.57;;
9960;SDS011;5021;51.506;11.320;2024-01-07T13:07:42;5.93;;;4.37;;
9960;SDS011;5021;51.506;11.320;2024-01-07T13:10:08;6.30;;;5.00;;
9960;SDS011;5021;51.506;11.320;2024-01-07T13:12:36;5.43;;;4.83;;
9960;SDS011;5021;51.506;11.320;2024-01-07T13:15:03;5.20;;;4.43;;
9960;SDS011;5021;51.506;11.320;2024-01-07T13:17:29;5.43;;;4.70;;
9960;SDS011;5021;51.506;11.320;2024-01-07T13:19:57;7.17;;;5.67;;
9960;SDS011;5021;51.506;11.320;2024-01-07T13:22:23;7.83;;;6.17;;
9960;SDS011;5021;51.506;11.320;2024-01-07T13:24:49;8.23;;;6.10;;
9960;SDS011;5021;51.506;11.320;2024-01-07T13:27:15;8.73;;;6.90;;
9960;SDS011;5021;51.506;11.320;2024-01-07T13:29:43;8.23;;;6.37;;
9960;SDS011;5021;51.506;11.320;2024-01-07T13:32:12;6.30;;;5.33;;
9960;SDS011;5021;51.506;11.320;2024-01-07T13:34:40;7.13;;;5.67;;
9960;SDS011;5021;51.506;11.320;2024-01-07T13:37:05;9.40;;;6.43;;
9960;SDS011;5021;51.506;11.320;2024-01-07T13:39:31;5.90;;;4.80;;
9960;SDS011;5021;51.506;11.320;2024-01-07T13:41:58;7.67;;;5.37;;
9960;SDS011;5021;51.506;11.320;2024-01-07T13:44:23;9.73;;;6.63;;
9960;SDS011;5021;51.506;11.320;2024-01-07T13:46:49;7.10;;;5.83;;
9960;SDS011;5021;51.506;11.320;2024-01-07T13:49:17;5.77;;;4.93;;
9960;SDS011;5021;51.506;11.320;2024-01-07T13:51:43;7.87;;;6.47;;
9960;SDS011;5021;51.506;11.320;2024-01-07T13:54:09;7.43;;;5.80;;
9960;SDS011;5021;51.506;11.320;2024-01-07T13:56:43;7.87;;;5.53;;
9960;SDS011;5021;51.506;11.320;2024-01-07T13:59:09;6.03;;;5.23;;
9960;SDS011;5021;51.506;11.320;2024-01-07T14:01:36;8.90;;;6.00;;
9960;SDS011;5021;51.506;11.320;2024-01-07T14:04:02;8.57;;;6.40;;
9960;SDS011;5021;51.506;11.320;2024-01-07T14:06:28;6.63;;;4.87;;
9960;SDS011;5021;51.506;11.320;2024-01-07T14:08:54;7.17;;;5.10;;
9960;SDS011;5021;51.506;11.320;2024-01-07T14:11:20;10.57;;;7.27;;
9960;SDS011;5021;51.506;11.320;2024-01-07T14:13:46;10.60;;;6.40;;
9960;SDS011;5021;51.506;11.320;2024-01-07T14:16:12;15.17;;;9.47;;
9960;SDS011;5021;51.506;11.320;2024-01-07T14:18:38;10.67;;;7.10;;
9960;SDS011;5021;51.506;11.320;2024-01-07T14:21:04;12.00;;;7.10;;
9960;SDS011;5021;51.506;11.320;2024-01-07T14:23:30;12.10;;;7.87;;
9960;SDS011;5021;51.506;11.320;2024-01-07T14:25:57;14.50;;;8.97;;
9960;SDS011;5021;51.506;11.320;2024-01-07T14:28:23;11.10;;;7.50;;
9960;SDS011;5021;51.506;11.320;2024-01-07T14:30:49;10.13;;;6.03;;
9960;SDS011;5021;51.506;11.320;2024-01-07T14:33:15;10.17;;;6.60;;
9960;SDS011;5021;51.506;11.320;2024-01-07T14:35:41;10.27;;;6.80;;
9960;SDS011;5021;51.506;11.320;2024-01-07T14:38:07;15.70;;;9.67;;
9960;SDS011;5021;51.506;11.320;2024-01-07T14:40:33;8.83;;;6.50;;
9960;SDS011;5021;51.506;11.320;2024-01-07T14:42:59;10.13;;;7.03;;
9960;SDS011;5021;51.506;11.320;2024-01-07T14:45:25;8.57;;;6.73;;
9960;SDS011;5021;51.506;11.320;2024-01-07T14:47:51;10.13;;;7.53;;
9960;SDS011;5021;51.506;11.320;2024-01-07T14:50:18;9.13;;;7.20;;